Time,TemperatureF,DewpointF,PressureIn,WindDirection,WindDirectionDegrees,WindSpeedMPH,WindSpeedGustMPH,Humidity,HourlyPrecipIn,Conditions,Clouds,dailyrainin,SoftwareType,DateUTC
2013-12-14 00:02:00,12.0,6.0,-100.00,East,90,11.0,18.0,76,0.00,,,-99.99,,2013-12-14 06:02:00,
2013-12-14 00:42:00,13.0,7.0,-100.00,East,85,12.0,21.0,77,0.00,,,-99.99,,2013-12-14 06:42:00,
2013-12-14 00:52:00,13.0,7.0,-100.00,East,85,12.0,21.0,77,0.00,,,-99.99,,2013-12-14 06:52:00,
2013-12-14 01:02:00,13.0,7.0,-100.00,East,85,12.0,21.0,77,0.00,,,-99.99,,2013-12-14 07:02:00,
2013-12-14 01:42:00,13.0,7.0,-100.00,East,85,9.0,16.0,79,0.00,,,-99.99,,2013-12-14 07:42:00,
2013-12-14 01:52:00,13.0,7.0,-100.00,East,85,9.0,16.0,79,0.00,,,-99.99,,2013-12-14 07:52:00,
2013-12-14 02:02:00,13.0,7.0,-100.00,East,85,9.0,16.0,79,0.00,,,-99.99,,2013-12-14 08:02:00,
2013-12-14 02:42:00,13.0,9.0,-100.00,East,90,10.0,16.0,84,0.00,,,-99.99,,2013-12-14 08:42:00,
2013-12-14 02:52:00,13.0,9.0,-100.00,East,90,10.0,16.0,84,0.00,,,-99.99,,2013-12-14 08:52:00,
2013-12-14 03:02:00,13.0,9.0,-100.00,East,90,10.0,16.0,84,0.00,,,-99.99,,2013-12-14 09:02:00,
2013-12-14 03:44:00,13.0,10.0,-100.00,East,90,11.0,18.0,91,0.00,,,-99.99,,2013-12-14 09:44:00,
2013-12-14 03:54:00,13.0,10.0,-100.00,East,90,11.0,18.0,91,0.00,,,-99.99,,2013-12-14 09:54:00,
2013-12-14 04:03:00,13.0,10.0,-100.00,East,90,11.0,18.0,91,0.00,,,-99.99,,2013-12-14 10:03:00,
2013-12-14 04:43:00,12.0,11.0,-100.00,East,85,11.0,16.0,95,0.00,,,-99.99,,2013-12-14 10:43:00,
2013-12-14 04:53:00,12.0,11.0,-100.00,East,85,11.0,16.0,95,0.00,,,-99.99,,2013-12-14 10:53:00,
2013-12-14 05:03:00,12.0,11.0,-100.00,East,85,11.0,16.0,95,0.00,,,-99.99,,2013-12-14 11:03:00,
2013-12-14 05:42:00,12.0,11.0,-100.00,East,95,12.0,17.0,95,0.00,,,-99.99,,2013-12-14 11:42:00,
2013-12-14 05:53:00,12.0,11.0,-100.00,East,95,12.0,17.0,95,0.00,,,-99.99,,2013-12-14 11:53:00,
2013-12-14 06:02:00,12.0,11.0,-100.00,East,95,12.0,17.0,95,0.00,,,-99.99,,2013-12-14 12:02:00,
2013-12-14 06:42:00,12.0,11.0,-100.00,East,90,11.0,16.0,96,0.00,,,-99.99,,2013-12-14 12:42:00,
2013-12-14 06:53:00,12.0,11.0,-100.00,East,90,11.0,16.0,96,0.00,,,-99.99,,2013-12-14 12:53:00,
2013-12-14 07:01:00,12.0,11.0,-100.00,East,90,11.0,16.0,96,0.00,,,-99.99,,2013-12-14 13:01:00,
2013-12-14 07:42:00,12.0,11.0,-100.00,East,90,10.0,16.0,96,0.00,,,-99.99,,2013-12-14 13:42:00,
2013-12-14 07:52:00,12.0,11.0,-100.00,East,90,10.0,16.0,96,0.00,,,-99.99,,2013-12-14 13:52:00,
2013-12-14 08:01:00,12.0,11.0,-100.00,East,90,10.0,16.0,96,0.00,,,-99.99,,2013-12-14 14:01:00,
2013-12-14 08:42:00,13.0,12.0,-100.00,East,90,9.0,15.0,97,0.00,,,-99.99,,2013-12-14 14:42:00,
2013-12-14 08:52:00,13.0,12.0,-100.00,East,90,9.0,15.0,97,0.00,,,-99.99,,2013-12-14 14:52:00,
2013-12-14 09:02:00,13.0,12.0,-100.00,East,90,9.0,15.0,97,0.00,,,-99.99,,2013-12-14 15:02:00,
2013-12-14 09:44:00,14.0,13.0,-100.00,East,85,8.0,15.0,97,0.00,,,-99.99,,2013-12-14 15:44:00,
2013-12-14 09:54:00,14.0,13.0,-100.00,East,85,8.0,15.0,97,0.00,,,-99.99,,2013-12-14 15:54:00,
2013-12-14 10:04:00,14.0,13.0,-100.00,East,85,8.0,15.0,97,0.00,,,-99.99,,2013-12-14 16:04:00,
2013-12-14 10:43:00,15.0,14.0,-100.00,East,85,7.0,12.0,97,0.00,,,-99.99,,2013-12-14 16:43:00,
2013-12-14 10:53:00,15.0,14.0,-100.00,East,85,7.0,12.0,97,0.00,,,-99.99,,2013-12-14 16:53:00,
2013-12-14 11:03:00,15.0,14.0,-100.00,East,85,7.0,12.0,97,0.00,,,-99.99,,2013-12-14 17:03:00,
2013-12-14 11:43:00,16.0,15.0,-100.00,East,85,6.0,12.0,95,0.00,,,-99.99,,2013-12-14 17:43:00,
2013-12-14 11:53:00,16.0,15.0,-100.00,East,85,6.0,12.0,95,0.00,,,-99.99,,2013-12-14 17:53:00,
2013-12-14 12:02:00,16.0,15.0,-100.00,East,85,6.0,12.0,95,0.00,,,-99.99,,2013-12-14 18:02:00,
2013-12-14 12:42:00,18.0,16.0,-100.00,ENE,75,7.0,10.0,92,0.00,,,-99.99,,2013-12-14 18:42:00,
2013-12-14 12:52:00,18.0,16.0,-100.00,ENE,75,7.0,10.0,92,0.00,,,-99.99,,2013-12-14 18:52:00,
2013-12-14 13:02:00,18.0,16.0,-100.00,ENE,75,7.0,10.0,92,0.00,,,-99.99,,2013-12-14 19:02:00,
2013-12-14 13:42:00,19.0,16.0,-100.00,East,80,3.0,6.0,89,0.00,,,-99.99,,2013-12-14 19:42:00,
2013-12-14 13:52:00,19.0,16.0,-100.00,East,80,3.0,6.0,89,0.00,,,-99.99,,2013-12-14 19:52:00,
2013-12-14 14:01:00,19.0,16.0,-100.00,East,80,3.0,6.0,89,0.00,,,-99.99,,2013-12-14 20:01:00,
2013-12-14 14:42:00,20.0,17.0,-100.00,NE,45,1.0,4.0,86,0.00,,,-99.99,,2013-12-14 20:42:00,
2013-12-14 14:54:00,20.0,17.0,-100.00,NE,45,1.0,4.0,86,0.00,,,-99.99,,2013-12-14 20:54:00,
2013-12-14 15:03:00,20.0,17.0,-100.00,NE,45,1.0,4.0,86,0.00,,,-99.99,,2013-12-14 21:03:00,
2013-12-14 15:10:00,20.0,16.0,-100.00,ESE,105,2.0,3.0,84,0.00,,,-99.99,,2013-12-14 21:10:00,
2013-12-14 15:44:00,20.0,16.0,-100.00,ESE,105,2.0,3.0,84,0.00,,,-99.99,,2013-12-14 21:44:00,
2013-12-14 15:54:00,20.0,16.0,-100.00,ESE,105,2.0,3.0,84,0.00,,,-99.99,,2013-12-14 21:54:00,
2013-12-14 16:03:00,20.0,16.0,-100.00,ESE,105,2.0,3.0,84,0.00,,,-99.99,,2013-12-14 22:03:00,
2013-12-14 16:43:00,20.0,16.0,-100.00,WNW,300,2.0,5.0,87,0.00,,,-99.99,,2013-12-14 22:43:00,
2013-12-14 16:52:00,20.0,16.0,-100.00,WNW,300,2.0,5.0,87,0.00,,,-99.99,,2013-12-14 22:52:00,
2013-12-14 17:02:00,20.0,16.0,-100.00,WNW,300,2.0,5.0,87,0.00,,,-99.99,,2013-12-14 23:02:00,
2013-12-14 17:43:00,19.0,17.0,-100.00,WNW,290,2.0,4.0,92,0.00,,,-99.99,,2013-12-14 23:43:00,
2013-12-14 17:53:00,19.0,17.0,-100.00,WNW,290,2.0,4.0,92,0.00,,,-99.99,,2013-12-14 23:53:00,
2013-12-14 18:02:00,19.0,17.0,-100.00,WNW,290,2.0,4.0,92,0.00,,,-99.99,,2013-12-15 00:02:00,
2013-12-14 18:42:00,18.0,17.0,-100.00,West,265,3.0,7.0,94,0.00,,,-99.99,,2013-12-15 00:42:00,
2013-12-14 18:52:00,18.0,17.0,-100.00,West,265,3.0,7.0,94,0.00,,,-99.99,,2013-12-15 00:52:00,
2013-12-14 19:01:00,18.0,17.0,-100.00,West,265,3.0,7.0,94,0.00,,,-99.99,,2013-12-15 01:01:00,
2013-12-14 19:42:00,17.0,16.0,-100.00,WNW,285,5.0,10.0,96,0.00,,,-99.99,,2013-12-15 01:42:00,
2013-12-14 19:52:00,17.0,16.0,-100.00,WNW,285,5.0,10.0,96,0.00,,,-99.99,,2013-12-15 01:52:00,
2013-12-14 20:01:00,17.0,16.0,-100.00,WNW,285,5.0,10.0,96,0.00,,,-99.99,,2013-12-15 02:01:00,
2013-12-14 20:10:00,16.0,15.0,-100.00,West,280,4.0,12.0,96,0.00,,,-99.99,,2013-12-15 02:10:00,
2013-12-14 20:42:00,16.0,15.0,-100.00,West,280,4.0,12.0,96,0.00,,,-99.99,,2013-12-15 02:42:00,
2013-12-14 20:52:00,16.0,15.0,-100.00,West,280,4.0,12.0,96,0.00,,,-99.99,,2013-12-15 02:52:00,
2013-12-14 21:02:00,16.0,15.0,-100.00,West,280,4.0,12.0,96,0.00,,,-99.99,,2013-12-15 03:02:00,
2013-12-14 21:43:00,15.0,14.0,-100.00,West,280,4.0,11.0,96,0.00,,,-99.99,,2013-12-15 03:43:00,
2013-12-14 21:54:00,15.0,14.0,-100.00,West,280,4.0,11.0,96,0.00,,,-99.99,,2013-12-15 03:54:00,
2013-12-14 22:02:00,-999.0,-99.9,-100.00,West,280,4.0,11.0,-999,0.00,,,-99.99,,2013-12-15 04:02:00,
2013-12-14 22:43:00,13.0,12.0,-100.00,WNW,300,4.0,11.0,96,0.00,,,-99.99,,2013-12-15 04:43:00,
2013-12-14 22:53:00,13.0,12.0,-100.00,WNW,300,4.0,11.0,96,0.00,,,-99.99,,2013-12-15 04:53:00,
2013-12-14 23:02:00,13.0,12.0,-100.00,WNW,300,4.0,11.0,96,0.00,,,-99.99,,2013-12-15 05:02:00,
2013-12-14 23:42:00,12.0,10.0,-100.00,WNW,300,7.0,14.0,94,0.00,,,-99.99,,2013-12-15 05:42:00,
2013-12-14 23:53:00,12.0,10.0,-100.00,WNW,300,7.0,14.0,94,0.00,,,-99.99,,2013-12-15 05:53:00,